Pagina principale
METAR-TAF:

METAR-TAF

Aeroporti :

Aeroporto di Verona-Villafranca

Verona, Italia

latitudine: 45-23N, longitudine: 010-52E, altezza: 67 m

Osservazione

Il bollettino è stato emesso 29 minuti fa, alle 15:50 UTC
Vento 11 kt da sud-ovest
Temperature 17°C
Umidità 45%
Pressione 1021 hPa
Visibilità 10 km o più
nessuna nube inferiore a 1500 m e nessun cumulonembo

METAR: LIPX 291550Z 23011KT CAVOK 17/05 Q1021

Ora: 18:19 (16:19 UTC)

Previsione

Il bollettino è stato emesso 5 ore e 19 minuti fa, alle 11:00 UTC
Previsione valida dal 29 alle 12 UTC al 30 alle 12 UTC
Vento 13 kt da ovest
Visibilità 10 km o più
Nubi sparse ad un'altezza di 3000 ft
Evoluzione graduale
dal 29 alle 17 UTC al 29 alle 19 UTC
Vento 5 kt da direzioni variabili
Evoluzione graduale
dal 30 alle 10 UTC al 30 alle 12 UTC
Vento 10 kt da ovest

TAF: LIPX 291100Z 2912/3012 26013KT 9999 SCT030 BECMG 2917/2919 VRB05KT BECMG 3010/3012 28010KT

Osservazioni e previsioni meteorologiche di più di 4000 aeroporti (messaggi METAR e TAF).

Le stazioni disponibili sono rappresentate dai dischi gialli e rossi sulla carta.

Puntare il mouse per vedere il nome della stazione.

Clicca sopra per visualizzare le osservazioni e previsioni meteorologiche.

Per cambiare la mappa : fare clic sui pulsanti verdi con una croce nera per ingrandire, il pulsante verde con un trattino per diminuire, o sulla freccia verde per le mappe adiacenti.


METAR-TAF: